Havelock, Nebraska
Current Conditions -  °F | °C
As of 9:54 AM on Thursday 29 Jan 2015 (Local Time) from KLNK Reporting Station
Overcast Overcast  
Wind Chill: -3°   Ceiling: 2600
Heat Index:   Visibility: 10mi
Dew Point: -3°   Wind: 30mph
Humidity: 62%   Direction: 340°NNW
Pressure: 30.4"   Gusts: 39mph
Location:  40.8505°N, 96.6337°W
Report Text: KLNK 291554Z 34026G34KT 10SM OVC026 04/M03 A3040 RMK AO2 PK WND 35034/1554 SLP299 T00391028
Loading
Personal Weather Stations






























Interactive Weather Map New forecast layout! Learn more

10-Day Weather Forecast

Advertisements
Track Severe Weather on mobile